sensor_id;sensor_type;location;lat;lon;timestamp;P1;P4;P2;P0;N10;N4;N25;N1;N05;TS
73616;SPS30;61913;52.312;4.858;2023-05-29T00:00:34;6.54;5.81;4.48;2.67;21.54;21.46;21.12;19.34;14.16;0.84
73616;SPS30;61913;52.312;4.858;2023-05-29T00:03:00;6.87;6.12;4.74;2.85;23.00;22.91;22.56;20.71;15.26;0.82
73616;SPS30;61913;52.312;4.858;2023-05-29T00:05:28;7.16;6.36;4.92;2.94;23.72;23.63;23.25;21.32;15.65;0.81
73616;SPS30;61913;52.312;4.858;2023-05-29T00:07:54;6.82;6.06;4.69;2.81;22.72;22.63;22.28;20.45;15.04;0.83
73616;SPS30;61913;52.312;4.858;2023-05-29T00:10:22;6.45;5.75;4.48;2.72;21.97;21.89;21.56;19.85;14.72;0.81
73616;SPS30;61913;52.312;4.858;2023-05-29T00:12:48;7.05;6.26;4.83;2.87;23.19;23.10;22.73;20.82;15.24;0.82
73616;SPS30;61913;52.312;4.858;2023-05-29T00:15:15;6.86;6.07;4.62;2.66;21.49;21.40;21.03;19.10;13.70;0.83
73616;SPS30;61913;52.312;4.858;2023-05-29T00:17:41;6.83;6.04;4.61;2.66;21.48;21.39;21.03;19.11;13.74;0.83
73616;SPS30;61913;52.312;4.858;2023-05-29T00:20:09;6.51;5.76;4.40;2.55;20.63;20.55;20.20;18.38;13.25;0.84
73616;SPS30;61913;52.312;4.858;2023-05-29T00:22:37;6.35;5.64;4.35;2.58;20.82;20.74;20.40;18.67;13.65;0.83
73616;SPS30;61913;52.312;4.858;2023-05-29T00:25:04;7.05;6.24;4.76;2.75;22.20;22.10;21.72;19.75;14.20;0.85
73616;SPS30;61913;52.312;4.858;2023-05-29T00:27:32;7.50;6.62;5.01;2.84;22.95;22.85;22.44;20.30;14.41;0.85
73616;SPS30;61913;52.312;4.858;2023-05-29T00:29:59;7.34;6.47;4.89;2.75;22.26;22.16;21.76;19.65;13.89;0.87
73616;SPS30;61913;52.312;4.858;2023-05-29T00:32:26;6.67;5.91;4.53;2.65;21.39;21.30;20.95;19.11;13.84;0.85
73616;SPS30;61913;52.312;4.858;2023-05-29T00:34:54;6.23;5.52;4.23;2.48;20.01;19.93;19.60;17.88;12.96;0.84
73616;SPS30;61913;52.312;4.858;2023-05-29T00:37:21;6.17;5.49;4.24;2.53;20.41;20.34;20.02;18.34;13.45;0.82
73616;SPS30;61913;52.312;4.858;2023-05-29T00:39:48;6.42;5.68;4.34;2.52;20.35;20.27;19.92;18.13;13.07;0.85
73616;SPS30;61913;52.312;4.858;2023-05-29T00:42:15;5.80;5.15;3.96;2.34;18.90;18.83;18.52;16.93;12.34;0.84
73616;SPS30;61913;52.312;4.858;2023-05-29T00:44:41;5.89;5.25;4.10;2.51;20.26;20.19;19.89;18.34;13.66;0.81
73616;SPS30;61913;52.312;4.858;2023-05-29T00:47:08;5.35;4.77;3.71;2.26;18.25;18.18;17.91;16.50;12.24;0.82
73616;SPS30;61913;52.312;4.858;2023-05-29T00:49:35;6.31;5.60;4.31;2.55;20.62;20.54;20.21;18.48;13.49;0.83
73616;SPS30;61913;52.312;4.858;2023-05-29T00:52:03;6.01;5.34;4.13;2.46;19.87;19.79;19.48;17.85;13.09;0.83
73616;SPS30;61913;52.312;4.858;2023-05-29T00:54:33;7.32;6.48;4.96;2.88;23.25;23.15;22.76;20.72;14.95;0.85
73616;SPS30;61913;52.312;4.858;2023-05-29T00:57:00;6.21;5.49;4.18;2.40;19.41;19.32;18.99;17.24;12.36;0.85
73616;SPS30;61913;52.312;4.858;2023-05-29T00:59:29;6.08;5.37;4.08;2.34;18.91;18.83;18.50;16.79;12.01;0.87
73616;SPS30;61913;52.312;4.858;2023-05-29T01:01:56;6.23;5.53;4.26;2.53;20.42;20.34;20.01;18.32;13.39;0.84
73616;SPS30;61913;52.312;4.858;2023-05-29T01:04:27;6.53;5.81;4.50;2.71;21.85;21.77;21.43;19.68;14.50;0.84
73616;SPS30;61913;52.312;4.858;2023-05-29T01:06:54;6.07;5.38;4.12;2.41;19.46;19.39;19.06;17.38;12.60;0.86
73616;SPS30;61913;52.312;4.858;2023-05-29T01:09:22;6.41;5.68;4.34;2.52;20.40;20.32;19.98;18.19;13.14;0.86
73616;SPS30;61913;52.312;4.858;2023-05-29T01:14:25;6.19;5.48;4.17;2.39;19.35;19.27;18.94;17.19;12.32;0.86
73616;SPS30;61913;52.312;4.858;2023-05-29T01:20:07;6.11;5.41;4.13;2.38;19.25;19.17;18.85;17.13;12.32;0.87
73616;SPS30;61913;52.312;4.858;2023-05-29T01:28:15;6.50;5.74;4.35;2.47;19.95;19.86;19.50;17.65;12.55;0.87
73616;SPS30;61913;52.312;4.858;2023-05-29T01:30:46;6.35;5.59;4.23;2.38;19.23;19.14;18.79;16.97;11.99;0.88
73616;SPS30;61913;52.312;4.858;2023-05-29T01:33:13;6.40;5.66;4.31;2.48;20.05;19.97;19.62;17.82;12.78;0.88
73616;SPS30;61913;52.312;4.858;2023-05-29T01:35:40;5.41;4.78;3.63;2.07;16.73;16.66;16.37;14.83;10.58;0.90
73616;SPS30;61913;52.312;4.858;2023-05-29T01:38:07;5.81;5.14;3.92;2.27;18.32;18.24;17.93;16.31;11.73;0.88
73616;SPS30;61913;52.312;4.858;2023-05-29T01:40:33;6.50;5.74;4.36;2.48;20.08;19.99;19.64;17.79;12.68;0.88
73616;SPS30;61913;52.312;4.858;2023-05-29T01:43:01;6.05;5.31;3.98;2.18;17.62;17.54;17.20;15.42;10.69;0.90
73616;SPS30;61913;52.312;4.858;2023-05-29T01:45:28;6.58;5.79;4.35;2.41;19.53;19.44;19.08;17.16;12.02;0.90
73616;SPS30;61913;52.312;4.858;2023-05-29T01:47:55;5.96;5.27;4.02;2.31;18.71;18.63;18.31;16.64;11.95;0.88
73616;SPS30;61913;52.312;4.858;2023-05-29T01:50:22;5.39;4.78;3.67;2.15;17.38;17.31;17.02;15.54;11.28;0.87
73616;SPS30;61913;52.312;4.858;2023-05-29T01:52:50;6.57;5.79;4.37;2.45;19.81;19.72;19.35;17.46;12.31;0.88
73616;SPS30;61913;52.312;4.858;2023-05-29T01:55:17;6.95;6.06;4.44;2.28;18.52;18.42;18.01;15.86;10.49;0.94
73616;SPS30;61913;52.312;4.858;2023-05-29T01:57:44;6.34;5.56;4.14;2.24;18.16;18.07;17.71;15.83;10.89;0.88
73616;SPS30;61913;52.312;4.858;2023-05-29T02:00:11;6.06;5.33;4.00;2.21;17.87;17.79;17.45;15.68;10.94;0.87
73616;SPS30;61913;52.312;4.858;2023-05-29T02:02:38;6.29;5.53;4.14;2.27;18.41;18.32;17.97;16.12;11.20;0.87
73616;SPS30;61913;52.312;4.858;2023-05-29T02:05:06;6.55;5.74;4.27;2.29;18.55;18.46;18.08;16.12;11.03;0.89
73616;SPS30;61913;52.312;4.858;2023-05-29T02:07:34;7.00;6.17;4.66;2.62;21.18;21.08;20.70;18.68;13.20;0.87
73616;SPS30;61913;52.312;4.858;2023-05-29T02:10:01;6.15;5.40;4.05;2.24;18.10;18.01;17.67;15.87;11.07;0.88
73616;SPS30;61913;52.312;4.858;2023-05-29T02:12:27;5.86;5.16;3.88;2.16;17.51;17.43;17.10;15.40;10.82;0.88
73616;SPS30;61913;52.312;4.858;2023-05-29T02:14:54;5.46;4.81;3.62;2.02;16.35;16.28;15.98;14.39;10.12;0.89
73616;SPS30;61913;52.312;4.858;2023-05-29T02:17:20;6.15;5.43;4.12;2.34;18.95;18.87;18.53;16.78;11.95;0.87
73616;SPS30;61913;52.312;4.858;2023-05-29T02:19:47;6.50;5.73;4.33;2.44;19.74;19.65;19.29;17.43;12.33;0.87
73616;SPS30;61913;52.312;4.858;2023-05-29T02:22:13;6.84;6.01;4.51;2.48;20.09;20.00;19.61;17.61;12.27;0.90
73616;SPS30;61913;52.312;4.858;2023-05-29T02:24:40;6.55;5.74;4.28;2.32;18.77;18.68;18.31;16.36;11.26;0.89
73616;SPS30;61913;52.312;4.858;2023-05-29T02:27:07;6.84;6.01;4.50;2.46;19.91;19.81;19.43;17.41;12.07;0.88
73616;SPS30;61913;52.312;4.858;2023-05-29T02:29:33;6.69;5.88;4.40;2.41;19.53;19.44;19.06;17.09;11.87;0.89
73616;SPS30;61913;52.312;4.858;2023-05-29T02:32:00;6.56;5.74;4.25;2.26;18.29;18.20;17.82;15.83;10.74;0.93
73616;SPS30;61913;52.312;4.858;2023-05-29T02:34:27;6.95;6.09;4.51;2.39;19.38;19.28;18.88;16.78;11.38;0.92
73616;SPS30;61913;52.312;4.858;2023-05-29T02:36:53;6.04;5.29;3.93;2.11;17.09;17.00;16.66;14.85;10.15;0.91
73616;SPS30;61913;52.312;4.858;2023-05-29T02:39:20;6.65;5.80;4.26;2.19;17.79;17.70;17.30;15.25;10.11;0.96
73616;SPS30;61913;52.312;4.858;2023-05-29T02:41:47;7.89;6.86;4.99;2.51;20.36;20.25;19.77;17.29;11.21;0.98
73616;SPS30;61913;52.312;4.858;2023-05-29T02:44:14;6.71;5.85;4.27;2.18;17.68;17.58;17.18;15.09;9.90;0.96
73616;SPS30;61913;52.312;4.858;2023-05-29T02:46:40;7.81;6.79;4.93;2.46;19.96;19.85;19.37;16.91;10.89;0.98
73616;SPS30;61913;52.312;4.858;2023-05-29T02:49:07;6.91;6.01;4.38;2.20;17.89;17.79;17.37;15.21;9.88;0.95
73616;SPS30;61913;52.312;4.858;2023-05-29T02:51:34;7.05;6.12;4.44;2.21;17.94;17.84;17.41;15.18;9.75;0.96
73616;SPS30;61913;52.312;4.858;2023-05-29T02:54:01;7.55;6.55;4.74;2.34;19.01;18.90;18.43;16.03;10.23;0.96
73616;SPS30;61913;52.312;4.858;2023-05-29T02:56:27;7.07;6.17;4.54;2.36;19.12;19.02;18.60;16.43;10.95;0.92
73616;SPS30;61913;52.312;4.858;2023-05-29T02:58:54;6.55;5.75;4.31;2.36;19.09;19.00;18.63;16.70;11.59;0.87
73616;SPS30;61913;52.312;4.858;2023-05-29T03:01:21;5.73;5.04;3.79;2.09;16.94;16.86;16.54;14.87;10.39;0.88
73616;SPS30;61913;52.312;4.858;2023-05-29T03:03:47;6.05;5.30;3.93;2.08;16.90;16.81;16.46;14.63;9.93;0.92
73616;SPS30;61913;52.312;4.858;2023-05-29T03:06:14;7.72;6.73;4.93;2.52;20.43;20.32;19.86;17.46;11.49;0.95
73616;SPS30;61913;52.312;4.858;2023-05-29T03:08:43;6.43;5.62;4.15;2.17;17.60;17.51;17.14;15.17;10.19;0.92
73616;SPS30;61913;52.312;4.858;2023-05-29T03:11:11;6.24;5.47;4.06;2.17;17.59;17.51;17.15;15.27;10.42;0.90
73616;SPS30;61913;52.312;4.858;2023-05-29T03:13:39;6.23;5.48;4.11;2.26;18.29;18.21;17.86;16.03;11.16;0.88
73616;SPS30;61913;52.312;4.858;2023-05-29T03:16:06;5.86;5.18;3.93;2.24;18.12;18.04;17.72;16.06;11.45;0.86
73616;SPS30;61913;52.312;4.858;2023-05-29T03:18:34;5.72;5.04;3.80;2.13;17.24;17.16;16.85;15.19;10.71;0.88
73616;SPS30;61913;52.312;4.858;2023-05-29T03:21:01;6.14;5.40;4.05;2.24;18.10;18.01;17.67;15.88;11.08;0.89
73616;SPS30;61913;52.312;4.858;2023-05-29T03:23:28;5.76;5.07;3.82;2.13;17.23;17.15;16.83;15.16;10.65;0.89
73616;SPS30;61913;52.312;4.858;2023-05-29T03:25:54;6.77;5.94;4.45;2.43;19.70;19.61;19.23;17.24;11.95;0.90
73616;SPS30;61913;52.312;4.858;2023-05-29T03:28:21;6.92;6.06;4.49;2.38;19.30;19.20;18.80;16.71;11.33;0.91
73616;SPS30;61913;52.312;4.858;2023-05-29T03:30:47;6.71;5.88;4.36;2.33;18.92;18.82;18.44;16.43;11.21;0.91
73616;SPS30;61913;52.312;4.858;2023-05-29T03:33:14;6.65;5.81;4.27;2.21;17.91;17.82;17.42;15.38;10.22;0.95
73616;SPS30;61913;52.312;4.858;2023-05-29T03:35:41;6.44;5.63;4.17;2.21;17.88;17.79;17.42;15.47;10.47;0.93
73616;SPS30;61913;52.312;4.858;2023-05-29T03:38:08;6.87;6.01;4.45;2.36;19.16;19.06;18.66;16.59;11.25;0.93
73616;SPS30;61913;52.312;4.858;2023-05-29T03:40:34;7.25;6.34;4.71;2.51;20.31;20.21;19.79;17.61;11.98;0.93
73616;SPS30;61913;52.312;4.858;2023-05-29T03:43:01;6.90;6.03;4.44;2.31;18.74;18.64;18.24;16.13;10.78;0.95
73616;SPS30;61913;52.312;4.858;2023-05-29T03:45:28;7.35;6.40;4.68;2.39;19.42;19.32;18.88;16.60;10.92;0.97
73616;SPS30;61913;52.312;4.858;2023-05-29T03:47:54;7.08;6.17;4.51;2.29;18.63;18.53;18.11;15.90;10.43;0.97
73616;SPS30;61913;52.312;4.858;2023-05-29T03:50:21;6.93;6.06;4.47;2.33;18.94;18.84;18.43;16.32;10.94;0.94
73616;SPS30;61913;52.312;4.858;2023-05-29T03:52:47;6.93;6.05;4.44;2.30;18.68;18.58;18.17;16.04;10.68;0.94
73616;SPS30;61913;52.312;4.858;2023-05-29T03:55:15;6.90;6.03;4.46;2.35;19.06;18.96;18.56;16.47;11.11;0.93
73616;SPS30;61913;52.312;4.858;2023-05-29T03:57:42;6.34;5.59;4.23;2.37;19.21;19.13;18.78;16.95;11.98;0.87
73616;SPS30;61913;52.312;4.858;2023-05-29T04:00:09;6.67;5.89;4.46;2.53;20.43;20.34;19.97;18.07;12.83;0.89
73616;SPS30;61913;52.312;4.858;2023-05-29T04:02:37;7.13;6.27;4.70;2.58;20.89;20.79;20.39;18.30;12.73;0.91
73616;SPS30;61913;52.312;4.858;2023-05-29T04:05:05;6.67;5.85;4.36;2.35;19.03;18.94;18.56;16.57;11.38;0.90
73616;SPS30;61913;52.312;4.858;2023-05-29T04:07:33;7.18;6.28;4.65;2.46;19.95;19.85;19.43;17.26;11.68;0.91
73616;SPS30;61913;52.312;4.858;2023-05-29T04:09:59;6.38;5.57;4.10;2.14;17.32;17.23;16.86;14.90;9.96;0.92
73616;SPS30;61913;52.312;4.858;2023-05-29T04:12:26;6.03;5.30;3.98;2.19;17.76;17.68;17.34;15.57;10.86;0.87
73616;SPS30;61913;52.312;4.858;2023-05-29T04:14:52;6.69;5.89;4.42;2.45;19.83;19.73;19.36;17.41;12.18;0.88
73616;SPS30;61913;52.312;4.858;2023-05-29T04:17:19;6.95;6.12;4.60;2.55;20.61;20.52;20.13;18.10;12.66;0.88
73616;SPS30;61913;52.312;4.858;2023-05-29T04:19:46;6.35;5.57;4.16;2.27;18.35;18.26;17.90;16.02;11.07;0.90
73616;SPS30;61913;52.312;4.858;2023-05-29T04:22:12;6.20;5.46;4.12;2.30;18.61;18.52;18.18;16.38;11.53;0.88
73616;SPS30;61913;52.312;4.858;2023-05-29T04:24:39;5.82;5.14;3.90;2.23;18.01;17.93;17.62;15.97;11.39;0.86
73616;SPS30;61913;52.312;4.858;2023-05-29T04:27:11;5.81;5.13;3.89;2.20;17.80;17.72;17.41;15.75;11.19;0.87
73616;SPS30;61913;52.312;4.858;2023-05-29T04:29:41;6.11;5.39;4.08;2.31;18.70;18.61;18.28;16.53;11.74;0.85
73616;SPS30;61913;52.312;4.858;2023-05-29T04:32:08;6.04;5.32;4.02;2.25;18.22;18.14;17.81;16.07;11.33;0.85
73616;SPS30;61913;52.312;4.858;2023-05-29T04:34:37;5.77;5.12;3.92;2.28;18.45;18.37;18.06;16.46;11.91;0.83
73616;SPS30;61913;52.312;4.858;2023-05-29T04:37:07;5.35;4.74;3.64;2.14;17.26;17.19;16.91;15.44;11.22;0.82
73616;SPS30;61913;52.312;4.858;2023-05-29T04:39:33;5.55;4.92;3.76;2.19;17.70;17.63;17.33;15.79;11.41;0.84
73616;SPS30;61913;52.312;4.858;2023-05-29T04:42:00;5.65;5.04;3.92;2.38;19.18;19.11;18.82;17.32;12.82;0.82
73616;SPS30;61913;52.312;4.858;2023-05-29T04:44:27;5.48;4.90;3.84;2.38;19.22;19.16;18.89;17.47;13.10;0.80
73616;SPS30;61913;52.312;4.858;2023-05-29T04:46:55;5.44;4.84;3.77;2.29;18.45;18.39;18.11;16.67;12.35;0.80
73616;SPS30;61913;52.312;4.858;2023-05-29T04:49:23;5.80;5.15;3.98;2.38;19.23;19.16;18.86;17.29;12.70;0.81
73616;SPS30;61913;52.312;4.858;2023-05-29T04:51:50;6.37;5.65;4.34;2.56;20.65;20.57;20.23;18.48;13.45;0.84
73616;SPS30;61913;52.312;4.858;2023-05-29T04:54:21;6.04;5.37;4.14;2.47;19.91;19.83;19.52;17.88;13.10;0.82
73616;SPS30;61913;52.312;4.858;2023-05-29T04:56:48;5.64;5.03;3.90;2.35;19.01;18.94;18.65;17.14;12.66;0.82
73616;SPS30;61913;52.312;4.858;2023-05-29T04:59:15;5.63;5.03;3.93;2.41;19.42;19.35;19.07;17.59;13.11;0.81
73616;SPS30;61913;52.312;4.858;2023-05-29T05:01:41;5.75;5.13;3.99;2.44;19.65;19.58;19.29;17.77;13.20;0.81
73616;SPS30;61913;52.312;4.858;2023-05-29T05:04:09;5.32;4.75;3.72;2.28;18.43;18.36;18.10;16.70;12.46;0.79
73616;SPS30;61913;52.312;4.858;2023-05-29T05:06:36;6.06;5.41;4.21;2.56;20.69;20.62;20.31;18.71;13.89;0.81
73616;SPS30;61913;52.312;4.858;2023-05-29T05:09:04;6.47;5.78;4.52;2.78;22.45;22.37;22.05;20.36;15.20;0.81
73616;SPS30;61913;52.312;4.858;2023-05-29T05:11:31;5.73;5.12;3.99;2.45;19.76;19.68;19.40;17.89;13.33;0.81
73616;SPS30;61913;52.312;4.858;2023-05-29T05:13:57;5.87;5.24;4.10;2.52;20.35;20.28;19.98;18.45;13.77;0.80
73616;SPS30;61913;52.312;4.858;2023-05-29T05:16:24;6.19;5.50;4.26;2.55;20.63;20.55;20.23;18.57;13.66;0.82
73616;SPS30;61913;52.312;4.858;2023-05-29T05:18:50;6.32;5.60;4.28;2.48;20.02;19.94;19.60;17.84;12.85;0.84
73616;SPS30;61913;52.312;4.858;2023-05-29T05:21:17;6.22;5.52;4.24;2.50;20.21;20.13;19.80;18.10;13.19;0.84
73616;SPS30;61913;52.312;4.858;2023-05-29T05:23:44;5.99;5.32;4.11;2.44;19.74;19.66;19.35;17.73;12.98;0.83
73616;SPS30;61913;52.312;4.858;2023-05-29T05:26:23;5.81;5.16;3.99;2.38;19.21;19.14;18.84;17.27;12.67;0.83
73616;SPS30;61913;52.312;4.858;2023-05-29T05:28:50;7.04;6.24;4.79;2.81;22.70;22.61;22.24;20.30;14.74;0.83
73616;SPS30;61913;52.312;4.858;2023-05-29T05:31:17;6.40;5.68;4.37;2.58;20.83;20.74;20.41;18.65;13.59;0.83
73616;SPS30;61913;52.312;4.858;2023-05-29T05:33:44;5.85;5.17;3.94;2.27;18.36;18.28;17.97;16.33;11.73;0.84
73616;SPS30;61913;52.312;4.858;2023-05-29T05:36:10;5.75;5.10;3.93;2.32;18.76;18.69;18.39;16.82;12.27;0.82
73616;SPS30;61913;52.312;4.858;2023-05-29T05:38:37;6.26;5.54;4.24;2.46;19.87;19.79;19.46;17.71;12.78;0.83
73616;SPS30;61913;52.312;4.858;2023-05-29T05:41:03;6.30;5.57;4.24;2.43;19.63;19.54;19.20;17.42;12.47;0.84
73616;SPS30;61913;52.312;4.858;2023-05-29T05:43:30;6.04;5.35;4.10;2.40;19.39;19.31;18.99;17.32;12.55;0.82
73616;SPS30;61913;52.312;4.858;2023-05-29T05:45:56;6.23;5.54;4.28;2.55;20.58;20.50;20.17;18.48;13.55;0.82
73616;SPS30;61913;52.312;4.858;2023-05-29T05:48:23;5.85;5.21;4.04;2.44;19.72;19.64;19.34;17.78;13.14;0.81
73616;SPS30;61913;52.312;4.858;2023-05-29T05:50:50;6.18;5.50;4.27;2.58;20.84;20.76;20.44;18.79;13.89;0.83
73616;SPS30;61913;52.312;4.858;2023-05-29T05:53:16;5.92;5.25;4.04;2.38;19.25;19.17;18.86;17.23;12.55;0.84
73616;SPS30;61913;52.312;4.858;2023-05-29T05:55:43;5.94;5.27;4.06;2.39;19.34;19.26;18.95;17.32;12.62;0.84
73616;SPS30;61913;52.312;4.858;2023-05-29T05:58:10;5.71;5.08;3.94;2.38;19.19;19.12;18.83;17.30;12.77;0.82
73616;SPS30;61913;52.312;4.858;2023-05-29T06:00:36;4.80;4.29;3.35;2.06;16.60;16.54;16.30;15.05;11.22;0.80
73616;SPS30;61913;52.312;4.858;2023-05-29T06:03:03;4.99;4.47;3.52;2.20;17.75;17.69;17.44;16.17;12.18;0.80
73616;SPS30;61913;52.312;4.858;2023-05-29T06:05:30;4.82;4.33;3.45;2.21;17.77;17.72;17.49;16.29;12.42;0.79
73616;SPS30;61913;52.312;4.858;2023-05-29T06:07:56;4.54;4.10;3.29;2.15;17.28;17.23;17.02;15.93;12.26;0.77
73616;SPS30;61913;52.312;4.858;2023-05-29T06:10:23;4.69;4.23;3.39;2.22;17.88;17.83;17.61;16.49;12.70;0.77
73616;SPS30;61913;52.312;4.858;2023-05-29T06:12:49;4.69;4.22;3.36;2.16;17.45;17.39;17.17;16.02;12.24;0.78
73616;SPS30;61913;52.312;4.858;2023-05-29T06:15:16;5.25;4.71;3.74;2.38;19.18;19.11;18.86;17.55;13.34;0.79
73616;SPS30;61913;52.312;4.858;2023-05-29T06:17:43;5.12;4.60;3.66;2.35;18.91;18.85;18.61;17.34;13.22;0.79
73616;SPS30;61913;52.312;4.858;2023-05-29T06:20:10;5.09;4.58;3.66;2.36;19.05;18.99;18.75;17.51;13.41;0.80
73616;SPS30;61913;52.312;4.858;2023-05-29T06:22:37;4.75;4.27;3.40;2.19;17.62;17.56;17.34;16.17;12.35;0.79
73616;SPS30;61913;52.312;4.858;2023-05-29T06:25:04;4.85;4.36;3.48;2.24;18.05;17.99;17.76;16.57;12.67;0.78
73616;SPS30;61913;52.312;4.858;2023-05-29T06:27:34;4.98;4.47;3.56;2.28;18.35;18.29;18.05;16.82;12.82;0.78
73616;SPS30;61913;52.312;4.858;2023-05-29T06:30:00;4.57;4.14;3.35;2.23;17.94;17.89;17.69;16.62;12.91;0.74
73616;SPS30;61913;52.312;4.858;2023-05-29T06:32:27;4.84;4.37;3.53;2.33;18.80;18.75;18.53;17.39;13.47;0.73
73616;SPS30;61913;52.312;4.858;2023-05-29T06:34:54;5.03;4.53;3.63;2.35;18.96;18.91;18.67;17.45;13.40;0.74
73616;SPS30;61913;52.312;4.858;2023-05-29T06:37:21;4.90;4.43;3.57;2.36;19.03;18.97;18.75;17.59;13.63;0.73
73616;SPS30;61913;52.312;4.858;2023-05-29T06:39:48;4.99;4.48;3.55;2.25;18.15;18.09;17.85;16.60;12.60;0.76
73616;SPS30;61913;52.312;4.858;2023-05-29T06:42:14;4.59;4.15;3.35;2.21;17.81;17.75;17.55;16.46;12.74;0.74
73616;SPS30;61913;52.312;4.858;2023-05-29T06:44:41;4.53;4.10;3.33;2.24;18.03;17.98;17.78;16.74;13.06;0.74
73616;SPS30;61913;52.312;4.858;2023-05-29T06:47:07;4.64;4.22;3.44;2.33;18.78;18.73;18.53;17.48;13.70;0.72
73616;SPS30;61913;52.312;4.858;2023-05-29T06:49:34;4.84;4.38;3.54;2.36;18.99;18.93;18.72;17.58;13.66;0.74
73616;SPS30;61913;52.312;4.858;2023-05-29T06:52:01;4.84;4.37;3.51;2.30;18.55;18.50;18.28;17.12;13.21;0.75
73616;SPS30;61913;52.312;4.858;2023-05-29T06:54:27;4.49;4.06;3.27;2.17;17.44;17.39;17.19;16.13;12.50;0.74
73616;SPS30;61913;52.312;4.858;2023-05-29T06:56:54;4.58;4.14;3.34;2.21;17.77;17.72;17.52;16.43;12.72;0.74
73616;SPS30;61913;52.312;4.858;2023-05-29T06:59:35;4.89;4.42;3.56;2.36;18.97;18.91;18.69;17.54;13.58;0.75
73616;SPS30;61913;52.312;4.858;2023-05-29T07:02:01;4.42;4.02;3.30;2.26;18.17;18.12;17.94;16.95;13.35;0.72
73616;SPS30;61913;52.312;4.858;2023-05-29T07:04:28;4.50;4.11;3.40;2.37;19.04;18.99;18.81;17.84;14.15;0.70
73616;SPS30;61913;52.312;4.858;2023-05-29T07:06:54;4.41;4.02;3.32;2.30;18.48;18.44;18.25;17.29;13.68;0.70
73616;SPS30;61913;52.312;4.858;2023-05-29T07:09:21;5.29;4.80;3.91;2.63;21.19;21.13;20.90;19.69;15.39;0.75
73616;SPS30;61913;52.312;4.858;2023-05-29T07:11:48;5.15;4.65;3.75;2.48;19.98;19.92;19.69;18.47;14.31;0.77
73616;SPS30;61913;52.312;4.858;2023-05-29T07:14:14;4.58;4.17;3.43;2.37;19.07;19.02;18.83;17.83;14.08;0.73
73616;SPS30;61913;52.312;4.858;2023-05-29T07:16:42;3.71;3.40;2.83;2.01;16.13;16.09;15.94;15.17;12.12;0.69
73616;SPS30;61913;52.312;4.858;2023-05-29T07:19:08;4.45;4.08;3.40;2.41;19.39;19.34;19.17;18.24;14.58;0.69
73616;SPS30;61913;52.312;4.858;2023-05-29T07:21:47;4.10;3.74;3.09;2.16;17.37;17.33;17.16;16.28;12.93;0.72
73616;SPS30;61913;52.312;4.858;2023-05-29T07:24:13;4.64;4.24;3.52;2.48;19.92;19.87;19.69;18.71;14.90;0.70
73616;SPS30;61913;52.312;4.858;2023-05-29T07:26:40;4.13;3.79;3.17;2.27;18.23;18.19;18.03;17.18;13.78;0.71
73616;SPS30;61913;52.312;4.858;2023-05-29T07:29:07;4.24;3.88;3.22;2.27;18.21;18.17;18.00;17.10;13.62;0.72
73616;SPS30;61913;52.312;4.858;2023-05-29T07:31:33;3.79;3.45;2.84;1.97;15.82;15.78;15.62;14.80;11.70;0.72
73616;SPS30;61913;52.312;4.858;2023-05-29T07:34:00;4.49;4.06;3.29;2.20;17.74;17.69;17.49;16.45;12.81;0.74
73616;SPS30;61913;52.312;4.858;2023-05-29T07:36:30;4.78;4.31;3.46;2.26;18.19;18.13;17.92;16.77;12.91;0.77
73616;SPS30;61913;52.312;4.858;2023-05-29T07:39:00;5.07;4.56;3.63;2.33;18.81;18.75;18.51;17.26;13.18;0.78
73616;SPS30;61913;52.312;4.858;2023-05-29T07:41:26;4.77;4.30;3.43;2.21;17.81;17.75;17.53;16.36;12.52;0.79
73616;SPS30;61913;52.312;4.858;2023-05-29T07:43:53;4.35;3.93;3.16;2.08;16.75;16.70;16.50;15.47;11.95;0.77
73616;SPS30;61913;52.312;4.858;2023-05-29T07:46:22;4.71;4.26;3.45;2.30;18.52;18.47;18.26;17.16;13.35;0.76
73616;SPS30;61913;52.312;4.858;2023-05-29T07:48:48;4.97;4.47;3.57;2.29;18.49;18.43;18.20;16.97;12.97;0.77
73616;SPS30;61913;52.312;4.858;2023-05-29T07:51:15;4.74;4.28;3.43;2.24;18.03;17.97;17.75;16.61;12.78;0.76
73616;SPS30;61913;52.312;4.858;2023-05-29T07:53:43;4.96;4.47;3.59;2.35;18.94;18.89;18.66;17.47;13.47;0.75
73616;SPS30;61913;52.312;4.858;2023-05-29T07:56:10;5.03;4.53;3.64;2.37;19.12;19.06;18.83;17.62;13.56;0.75
73616;SPS30;61913;52.312;4.858;2023-05-29T07:58:36;4.86;4.39;3.53;2.31;18.62;18.57;18.35;17.18;13.26;0.74
73616;SPS30;61913;52.312;4.858;2023-05-29T08:01:03;4.75;4.32;3.54;2.41;19.42;19.37;19.17;18.10;14.23;0.70
73616;SPS30;61913;52.312;4.858;2023-05-29T08:03:31;4.46;4.04;3.29;2.21;17.78;17.73;17.54;16.51;12.89;0.71
73616;SPS30;61913;52.312;4.858;2023-05-29T08:06:00;4.80;4.35;3.53;2.37;19.08;19.03;18.81;17.71;13.81;0.72
73616;SPS30;61913;52.312;4.858;2023-05-29T08:08:26;5.42;4.90;3.94;2.58;20.81;20.75;20.51;19.21;14.83;0.75
73616;SPS30;61913;52.312;4.858;2023-05-29T08:10:53;5.45;4.91;3.93;2.54;20.50;20.43;20.18;18.85;14.46;0.75
73616;SPS30;61913;52.312;4.858;2023-05-29T08:13:20;5.61;5.03;4.00;2.55;20.57;20.50;20.23;18.84;14.34;0.78
73616;SPS30;61913;52.312;4.858;2023-05-29T08:15:46;4.96;4.46;3.55;2.29;18.43;18.37;18.14;16.92;12.93;0.78
73616;SPS30;61913;52.312;4.858;2023-05-29T08:18:13;5.75;5.18;4.13;2.67;21.54;21.48;21.21;19.80;15.18;0.77
73616;SPS30;61913;52.312;4.858;2023-05-29T08:20:39;7.52;6.73;5.31;3.34;26.93;26.84;26.48;24.57;18.55;0.80
73616;SPS30;61913;52.312;4.858;2023-05-29T08:23:06;7.64;6.81;5.32;3.25;26.25;26.16;25.77;23.77;17.69;0.80
73616;SPS30;61913;52.312;4.858;2023-05-29T08:25:33;7.74;6.89;5.33;3.19;25.76;25.66;25.26;23.17;17.04;0.83
73616;SPS30;61913;52.312;4.858;2023-05-29T08:27:59;8.64;7.61;5.74;3.21;25.95;25.84;25.36;22.86;16.09;0.88
73616;SPS30;61913;52.312;4.858;2023-05-29T08:30:26;6.69;5.91;4.51;2.60;21.03;20.94;20.58;18.70;13.44;0.85
73616;SPS30;61913;52.312;4.858;2023-05-29T08:32:53;6.24;5.59;4.40;2.75;22.18;22.11;21.80;20.21;15.22;0.78
73616;SPS30;61913;52.312;4.858;2023-05-29T08:35:19;5.22;4.70;3.76;2.45;19.72;19.66;19.41;18.15;13.94;0.75
73616;SPS30;61913;52.312;4.858;2023-05-29T08:37:46;11.89;10.67;8.45;5.35;43.16;43.02;42.45;39.46;29.93;0.76
73616;SPS30;61913;52.312;4.858;2023-05-29T08:40:12;53.66;47.78;37.10;22.41;180.94;180.26;177.52;163.20;120.59;0.84
73616;SPS30;61913;52.312;4.858;2023-05-29T08:42:41;26.27;23.17;17.54;9.91;80.21;79.86;78.42;70.90;50.29;0.88
73616;SPS30;61913;52.312;4.858;2023-05-29T08:45:12;10.53;9.37;7.26;4.37;35.30;35.17;34.63;31.81;23.45;0.84
73616;SPS30;61913;52.312;4.858;2023-05-29T08:47:40;7.38;6.60;5.20;3.25;26.21;26.12;25.76;23.87;17.97;0.81
73616;SPS30;61913;52.312;4.858;2023-05-29T08:50:11;6.77;6.09;4.86;3.13;25.21;25.14;24.82;23.15;17.70;0.78
73616;SPS30;61913;52.312;4.858;2023-05-29T08:52:40;6.15;5.54;4.44;2.90;23.33;23.26;22.98;21.50;16.54;0.77
73616;SPS30;61913;52.312;4.858;2023-05-29T08:55:07;6.69;6.00;4.73;2.98;24.04;23.96;23.63;21.94;16.58;0.80
73616;SPS30;61913;52.312;4.858;2023-05-29T08:57:34;5.81;5.22;4.14;2.64;21.28;21.21;20.94;19.49;14.83;0.79
73616;SPS30;61913;52.312;4.858;2023-05-29T09:00:01;6.19;5.61;4.54;3.03;24.37;24.30;24.03;22.58;17.56;0.75
73616;SPS30;61913;52.312;4.858;2023-05-29T09:02:34;9.98;9.43;8.43;6.78;54.31;54.24;53.97;52.55;44.01;0.56
73616;SPS30;61913;52.312;4.858;2023-05-29T09:05:02;4.04;3.87;3.55;2.99;23.93;23.91;23.82;23.36;19.85;0.58
73616;SPS30;61913;52.312;4.858;2023-05-29T09:07:29;4.37;4.10;3.61;2.83;22.67;22.64;22.51;21.82;18.12;0.65
73616;SPS30;61913;52.312;4.858;2023-05-29T09:09:57;4.33;4.03;3.49;2.66;21.36;21.32;21.18;20.43;16.79;0.66
73616;SPS30;61913;52.312;4.858;2023-05-29T09:12:25;4.52;4.19;3.59;2.68;21.47;21.43;21.28;20.44;16.67;0.67
73616;SPS30;61913;52.312;4.858;2023-05-29T09:14:52;4.73;4.35;3.66;2.64;21.17;21.13;20.94;20.00;16.09;0.70
73616;SPS30;61913;52.312;4.858;2023-05-29T09:17:19;5.62;5.14;4.28;3.02;24.29;24.23;24.01;22.83;18.21;0.71
73616;SPS30;61913;52.312;4.858;2023-05-29T09:19:46;5.16;4.71;3.89;2.71;21.78;21.72;21.51;20.39;16.17;0.72
73616;SPS30;61913;52.312;4.858;2023-05-29T09:22:14;5.19;4.72;3.86;2.64;21.20;21.14;20.92;19.76;15.53;0.73